Time;durP1;ratioP1;P1;durP2;ratioP2;P2;SDS_P1;SDS_P2;PMS_P1;PMS_P2;Temp;Humidity;BMP_temperature;BMP_pressure;BME280_temperature;BME280_humidity;BME280_pressure;Samples;Min_cycle;Max_cycle;Signal;HPM_P1;HPM_P2
2023/12/10 00:02:24;;;;;;;17.37;2.10;;;;;;;14.35;58.21;99764.72;4998499;28;20490;-72
2023/12/10 00:04:50;;;;;;;7.47;1.60;;;;;;;14.58;58.98;99761.09;4992142;28;20057;-72
2023/12/10 00:07:15;;;;;;;11.43;1.93;;;;;;;14.64;57.79;99765.28;5010772;28;20817;-72
2023/12/10 00:09:41;;;;;;;15.97;1.90;;;;;;;14.15;59.07;99768.22;4992730;28;20033;-71
2023/12/10 00:12:07;;;;;;;11.13;1.83;;;;;;;14.13;59.73;99764.78;5004110;28;20034;-71
2023/12/10 00:14:32;;;;;;;10.33;1.83;;;;;;;14.21;59.72;99777.63;5012492;28;20037;-72
2023/12/10 00:16:58;;;;;;;13.63;2.03;;;;;;;13.81;60.38;99763.50;5012681;28;20393;-72
2023/12/10 00:19:24;;;;;;;23.63;2.43;;;;;;;14.14;60.60;99773.53;5010714;28;20021;-72
2023/12/10 00:21:49;;;;;;;9.77;2.53;;;;;;;13.79;62.01;99760.06;5004561;28;20413;-72
2023/12/10 00:24:15;;;;;;;25.57;2.50;;;;;;;14.18;60.45;99759.34;5008901;28;20041;-73
2023/12/10 00:26:40;;;;;;;14.63;1.60;;;;;;;13.68;62.06;99771.88;4991825;28;20030;-73
2023/12/10 00:29:05;;;;;;;18.07;2.23;;;;;;;13.57;62.70;99781.91;4993739;28;20425;-72
2023/12/10 00:31:31;;;;;;;6.27;1.43;;;;;;;13.52;63.52;99762.88;4997683;28;20030;-72
2023/12/10 00:33:56;;;;;;;18.20;3.70;;;;;;;13.98;61.17;99775.94;5011951;28;20030;-73
2023/12/10 00:36:22;;;;;;;15.23;2.47;;;;;;;13.72;61.71;99773.44;5026357;28;20528;-72
2023/12/10 00:38:47;;;;;;;15.90;2.30;;;;;;;14.41;61.22;99777.63;5007786;28;20029;-72
2023/12/10 00:41:14;;;;;;;12.43;2.57;;;;;;;13.94;61.60;99785.69;5011939;28;20076;-72
2023/12/10 00:43:40;;;;;;;21.97;2.13;;;;;;;14.29;59.96;99770.25;4992762;28;20416;-73
2023/12/10 00:46:06;;;;;;;15.97;2.50;;;;;;;14.52;59.04;99784.19;4993278;28;20552;-73
2023/12/10 00:48:33;;;;;;;27.47;2.03;;;;;;;13.98;59.08;99782.03;5010647;28;20033;-73
2023/12/10 00:51:02;;;;;;;14.50;2.03;;;;;;;13.95;60.24;99800.56;4994811;28;20498;-73
2023/12/10 00:53:27;;;;;;;13.27;2.93;;;;;;;13.87;60.95;99784.25;4992446;28;20088;-72
2023/12/10 00:55:53;;;;;;;9.43;1.60;;;;;;;14.00;61.06;99795.97;5007924;28;20460;-73
2023/12/10 00:58:18;;;;;;;10.43;1.63;;;;;;;13.95;59.99;99782.16;4994530;28;20064;-73
2023/12/10 01:00:44;;;;;;;12.67;1.40;;;;;;;13.52;59.75;99786.50;5008814;28;20609;-73
2023/12/10 01:03:10;;;;;;;15.17;1.90;;;;;;;13.86;59.45;99798.28;5006436;28;20040;-72
2023/12/10 01:05:35;;;;;;;16.73;2.10;;;;;;;13.61;60.19;99801.88;5011923;28;20026;-72
2023/12/10 01:08:00;;;;;;;19.70;3.10;;;;;;;14.39;57.28;99787.34;5010536;28;20021;-72
2023/12/10 01:10:26;;;;;;;13.60;1.63;;;;;;;13.89;57.30;99788.53;5010661;28;20030;-72
2023/12/10 01:12:52;;;;;;;8.93;1.27;;;;;;;14.07;56.66;99784.28;5000545;28;20046;-72
2023/12/10 01:15:29;;;;;;;9.63;1.80;;;;;;;14.17;55.05;99779.50;4990919;28;20030;-73
2023/12/10 01:18:01;;;;;;;14.37;2.20;;;;;;;14.13;55.28;99792.84;5005339;28;20117;-72
2023/12/10 01:20:33;;;;;;;11.17;2.37;;;;;;;14.28;55.25;99805.34;5011456;28;20056;-72
2023/12/10 01:23:04;;;;;;;;;;;;;;;14.46;54.13;99798.44;4998433;28;20641;-72
2023/12/10 01:25:29;;;;;;;16.43;2.20;;;;;;;14.46;53.59;99797.59;5005831;28;19949;-73
2023/12/10 01:27:55;;;;;;;9.43;2.10;;;;;;;14.29;54.18;99788.66;5017427;28;20120;-72
2023/12/10 01:30:23;;;;;;;16.73;1.87;;;;;;;14.23;53.96;99804.66;5007867;28;20034;-72
2023/12/10 01:32:56;;;;;;;9.30;1.77;;;;;;;14.73;53.39;99796.44;5002435;28;20314;-71
2023/12/10 01:35:21;;;;;;;17.00;1.47;;;;;;;14.29;53.68;99800.94;4991180;28;20033;-73
2023/12/10 01:37:47;;;;;;;15.70;2.50;;;;;;;14.72;52.94;99815.78;5007039;28;20022;-72
2023/12/10 01:40:13;;;;;;;12.93;2.37;;;;;;;14.66;52.43;99825.69;5003847;28;20111;-72
2023/12/10 01:42:40;;;;;;;9.77;1.93;;;;;;;14.76;52.33;99812.09;5003693;28;20040;-72
2023/12/10 01:45:06;;;;;;;13.23;1.97;;;;;;;14.67;52.19;99828.28;5009835;28;20026;-72
2023/12/10 01:47:34;;;;;;;14.13;2.20;;;;;;;14.67;52.08;99823.03;5008695;28;20401;-73
2023/12/10 01:50:04;;;;;;;16.43;2.23;;;;;;;14.86;51.91;99816.94;5000725;28;20481;-72
2023/12/10 01:52:31;;;;;;;24.40;2.63;;;;;;;14.89;51.51;99827.34;5005829;28;20608;-72
2023/12/10 01:55:05;;;;;;;19.13;3.20;;;;;;;14.96;51.76;99828.78;5010756;28;20120;-71
2023/12/10 01:57:32;;;;;;;10.13;1.63;;;;;;;14.66;53.06;99829.19;5011362;28;20049;-72
2023/12/10 01:59:58;;;;;;;26.43;2.80;;;;;;;14.43;54.40;99852.00;5011939;28;20080;-72
2023/12/10 02:02:25;;;;;;;18.80;4.13;;;;;;;14.61;54.21;99833.75;5009070;28;20033;-72
2023/12/10 02:04:54;;;;;;;16.07;2.87;;;;;;;14.10;54.94;99832.41;4992508;28;20116;-72
2023/12/10 02:07:21;;;;;;;14.60;2.37;;;;;;;14.43;55.27;99825.72;5009281;28;20617;-73
2023/12/10 02:09:46;;;;;;;7.07;1.47;;;;;;;13.89;56.13;99837.59;5010350;28;20030;-73
2023/12/10 02:12:13;;;;;;;17.20;2.10;;;;;;;14.41;55.43;99838.09;4997888;28;20381;-73
2023/12/10 02:14:39;;;;;;;10.00;1.67;;;;;;;13.51;56.91;99845.19;5007475;28;20035;-72
2023/12/10 02:17:04;;;;;;;12.90;2.97;;;;;;;14.25;55.98;99873.81;4991118;28;20402;-73
2023/12/10 02:19:30;;;;;;;19.83;2.57;;;;;;;14.05;57.13;99862.34;5005099;28;20018;-73
2023/12/10 02:21:58;;;;;;;14.03;2.00;;;;;;;14.61;55.50;99860.06;5008566;28;20075;-73
2023/12/10 02:24:31;;;;;;;18.87;1.70;;;;;;;13.71;56.76;99874.16;5012384;28;20033;-73
2023/12/10 02:26:57;;;;;;;16.90;1.73;;;;;;;14.80;55.15;99875.09;4991536;28;20398;-72
2023/12/10 02:29:22;;;;;;;17.73;3.37;;;;;;;13.97;56.50;99869.66;5000804;28;20026;-73
2023/12/10 02:31:48;;;;;;;13.43;2.60;;;;;;;14.23;56.27;99891.41;5000744;28;20034;-73
2023/12/10 02:34:13;;;;;;;12.23;2.13;;;;;;;13.87;56.16;99866.53;4996844;28;20029;-73
2023/12/10 02:36:39;;;;;;;13.40;1.97;;;;;;;13.97;56.25;99880.19;5010141;28;20040;-73
2023/12/10 02:39:06;;;;;;;7.83;1.87;;;;;;;13.96;55.19;99888.09;5009359;28;20465;-73
2023/12/10 02:41:31;;;;;;;13.17;1.50;;;;;;;13.60;55.85;99902.59;5010175;28;20397;-72
2023/12/10 02:43:57;;;;;;;15.70;2.43;;;;;;;13.90;54.97;99897.06;5003648;28;20040;-74
2023/12/10 02:46:22;;;;;;;15.70;2.00;;;;;;;13.51;56.20;99918.69;5008922;28;20029;-73
2023/12/10 02:48:47;;;;;;;13.70;2.07;;;;;;;13.57;55.90;99900.06;5010985;28;20030;-73
2023/12/10 02:51:13;;;;;;;5.17;1.37;;;;;;;13.34;56.03;99922.75;5008939;28;20124;-73
2023/12/10 02:53:38;;;;;;;6.93;1.60;;;;;;;13.67;55.89;99914.56;5009662;28;20545;-72
2023/12/10 02:56:04;;;;;;;18.17;2.53;;;;;;;14.01;54.92;99920.31;4996073;28;20038;-73
2023/12/10 02:58:30;;;;;;;16.70;1.70;;;;;;;14.28;54.31;99915.72;5007215;28;20492;-73
2023/12/10 03:00:55;;;;;;;14.57;1.80;;;;;;;14.40;54.50;99917.03;4989242;28;20038;-73
2023/12/10 03:03:21;;;;;;;21.57;3.60;;;;;;;14.00;54.12;99932.59;4990811;28;20030;-73
2023/12/10 03:05:46;;;;;;;7.10;1.00;;;;;;;13.81;56.10;99949.97;5002933;28;20030;-73
2023/12/10 03:08:11;;;;;;;16.93;1.97;;;;;;;13.91;55.86;99918.03;4994863;28;20034;-73
2023/12/10 03:10:37;;;;;;;9.53;1.67;;;;;;;13.68;57.37;99942.56;4998382;28;20548;-73
2023/12/10 03:13:02;;;;;;;13.03;1.87;;;;;;;13.57;56.27;99934.19;4989624;28;20109;-74
2023/12/10 03:15:28;;;;;;;18.20;3.50;;;;;;;14.10;56.27;99942.75;4990552;28;20030;-73
2023/12/10 03:17:53;;;;;;;13.43;1.20;;;;;;;13.97;55.88;99937.09;4991065;28;20490;-73
2023/12/10 03:20:18;;;;;;;23.40;2.93;;;;;;;14.01;55.00;99986.88;4995578;28;20030;-73
2023/12/10 03:22:44;;;;;;;18.90;2.10;;;;;;;14.07;55.32;99944.56;5008783;28;20025;-73
2023/12/10 03:25:09;;;;;;;17.73;1.87;;;;;;;14.14;54.75;99949.59;5008634;28;20113;-73
2023/12/10 03:27:35;;;;;;;13.50;1.83;;;;;;;14.45;53.67;99951.00;5008798;28;20037;-72
2023/12/10 03:30:01;;;;;;;5.03;1.60;;;;;;;13.69;54.87;99957.38;5022629;28;20030;-73
2023/12/10 03:32:26;;;;;;;19.23;1.87;;;;;;;14.20;53.21;99949.34;5005837;28;20036;-73
2023/12/10 03:34:51;;;;;;;17.07;2.70;;;;;;;14.24;53.76;99977.22;4990110;28;20095;-72
2023/12/10 03:37:17;;;;;;;10.83;1.30;;;;;;;13.79;54.01;99975.44;5022763;28;20493;-73
2023/12/10 03:39:42;;;;;;;22.10;2.40;;;;;;;13.82;53.35;99964.81;5009280;28;20030;-72
2023/12/10 03:42:07;;;;;;;17.37;1.77;;;;;;;14.87;52.09;99972.09;5008290;28;20033;-73
2023/12/10 03:44:33;;;;;;;16.30;2.77;;;;;;;13.88;52.54;99989.06;5008276;28;20084;-73
2023/12/10 03:47:03;;;;;;;8.87;2.33;;;;;;;14.52;51.99;99978.75;4994562;28;20026;-72
2023/12/10 03:49:28;;;;;;;12.63;1.77;;;;;;;14.87;51.71;99992.31;5000272;28;20446;-73
2023/12/10 03:51:57;;;;;;;16.73;1.63;;;;;;;14.56;51.55;100004.03;5000524;28;20065;-72
2023/12/10 03:54:23;;;;;;;9.80;1.10;;;;;;;14.43;51.88;99993.97;5001209;28;20034;-72
2023/12/10 03:56:49;;;;;;;7.47;2.37;;;;;;;13.94;51.91;100001.13;5000775;28;20115;-72
2023/12/10 03:59:14;;;;;;;9.70;1.67;;;;;;;13.97;52.70;100014.16;4990024;28;20121;-73
2023/12/10 04:01:42;;;;;;;11.37;2.10;;;;;;;14.88;50.31;100022.97;5012717;28;20026;-72
2023/12/10 04:04:08;;;;;;;11.80;2.27;;;;;;;14.28;51.53;100025.28;5007577;28;20490;-72
2023/12/10 04:06:38;;;;;;;14.97;1.30;;;;;;;14.58;51.37;100044.28;5009471;28;20068;-73
2023/12/10 04:09:03;;;;;;;19.63;2.63;;;;;;;14.95;50.06;100045.47;5008663;28;20081;-73
2023/12/10 04:11:28;;;;;;;23.77;2.70;;;;;;;14.67;51.21;100041.31;5005200;28;20034;-72
2023/12/10 04:13:54;;;;;;;16.57;2.23;;;;;;;14.25;51.41;100057.81;4990675;28;20030;-72
2023/12/10 04:16:39;;;;;;;6.23;0.80;;;;;;;14.56;51.18;100073.28;4989953;28;20517;-72
2023/12/10 04:19:04;;;;;;;19.93;2.00;;;;;;;14.58;51.36;100081.09;4988008;28;20060;-72
2023/12/10 04:21:30;;;;;;;14.23;1.30;;;;;;;14.62;51.47;100071.28;4994725;28;20057;-72
2023/12/10 04:23:56;;;;;;;16.10;2.60;;;;;;;14.38;51.46;100079.22;5008418;28;20389;-72
2023/12/10 04:26:21;;;;;;;12.17;1.97;;;;;;;14.81;51.09;100087.25;5007297;28;20022;-72
2023/12/10 04:28:47;;;;;;;13.10;2.03;;;;;;;14.64;50.39;100107.19;5008332;28;20034;-72
2023/12/10 04:31:13;;;;;;;12.70;1.70;;;;;;;14.39;51.41;100123.84;5012010;28;20021;-72
2023/12/10 04:33:38;;;;;;;4.83;1.80;;;;;;;14.21;51.86;100109.63;4994272;28;20111;-72
2023/12/10 04:36:04;;;;;;;9.30;1.53;;;;;;;15.01;50.37;100111.00;5006968;28;20022;-72
2023/12/10 04:38:30;;;;;;;7.43;1.67;;;;;;;14.97;50.76;100113.81;4999462;28;20512;-72
2023/12/10 04:40:55;;;;;;;16.27;1.93;;;;;;;14.72;50.11;100131.41;4990962;28;20029;-72
2023/12/10 04:43:21;;;;;;;8.27;1.97;;;;;;;14.94;50.71;100120.06;5004124;28;20516;-72
2023/12/10 04:45:46;;;;;;;16.07;2.70;;;;;;;14.16;52.15;100131.72;5013082;28;20025;-72
2023/12/10 04:48:15;;;;;;;8.20;1.90;;;;;;;14.07;52.27;100122.41;5010663;28;20501;-72
2023/12/10 04:50:41;;;;;;;6.97;2.80;;;;;;;14.37;51.73;100130.94;4998232;28;20042;-72
2023/12/10 04:53:07;;;;;;;7.37;1.77;;;;;;;14.10;51.98;100127.56;4998569;28;20505;-72
2023/12/10 04:55:32;;;;;;;8.43;1.80;;;;;;;14.65;51.59;100129.94;4993517;28;20037;-72
2023/12/10 04:57:58;;;;;;;13.87;1.40;;;;;;;14.04;52.37;100136.50;4997398;28;20041;-72
2023/12/10 05:00:24;;;;;;;14.10;3.93;;;;;;;13.99;52.55;100148.94;5007271;28;20064;-72
2023/12/10 05:02:49;;;;;;;7.83;1.23;;;;;;;14.35;51.25;100148.53;5007640;28;20034;-72
2023/12/10 05:05:16;;;;;;;17.37;2.03;;;;;;;14.92;50.54;100164.84;5009055;28;20509;-72
2023/12/10 05:07:42;;;;;;;13.70;2.43;;;;;;;14.28;51.69;100154.94;5008950;28;20476;-71
2023/12/10 05:10:08;;;;;;;7.60;1.37;;;;;;;13.38;53.25;100165.88;4991508;28;20018;-72
2023/12/10 05:12:33;;;;;;;11.43;1.53;;;;;;;14.38;51.88;100158.97;5008367;28;20394;-72
2023/12/10 05:15:02;;;;;;;8.33;1.97;;;;;;;14.13;52.50;100168.63;5002236;28;20061;-72
2023/12/10 05:17:28;;;;;;;13.77;2.70;;;;;;;13.81;52.50;100167.97;5005171;28;20034;-72
2023/12/10 05:19:53;;;;;;;10.90;1.57;;;;;;;13.92;52.47;100178.97;4994858;28;20386;-72
2023/12/10 05:22:20;;;;;;;7.30;1.40;;;;;;;15.15;50.01;100185.94;4990339;28;20771;-72
2023/12/10 05:24:45;;;;;;;16.90;2.00;;;;;;;14.23;51.66;100196.28;5006394;28;20041;-71
2023/12/10 05:27:11;;;;;;;8.00;1.77;;;;;;;14.06;52.25;100192.47;5003640;28;20030;-72
2023/12/10 05:29:36;;;;;;;14.33;1.57;;;;;;;14.80;51.24;100222.34;4999697;28;20425;-71
2023/12/10 05:32:02;;;;;;;16.23;2.03;;;;;;;14.21;52.75;100227.88;5026983;28;20477;-71
2023/12/10 05:34:28;;;;;;;21.80;3.10;;;;;;;14.80;51.80;100232.88;5024095;28;20018;-71
2023/12/10 05:36:53;;;;;;;17.83;2.80;;;;;;;13.93;53.42;100256.88;5011516;28;20029;-72
2023/12/10 05:39:18;;;;;;;17.23;1.93;;;;;;;13.99;53.10;100251.41;5005560;28;20034;-72
2023/12/10 05:41:44;;;;;;;21.20;2.13;;;;;;;13.68;53.80;100252.44;4991427;28;20525;-72
2023/12/10 05:44:09;;;;;;;9.80;2.27;;;;;;;13.55;53.80;100261.59;4991492;28;20549;-72
2023/12/10 05:46:35;;;;;;;8.27;2.03;;;;;;;13.88;52.91;100264.06;4991151;28;20094;-71
2023/12/10 05:49:01;;;;;;;15.70;2.50;;;;;;;14.71;51.53;100248.09;4992525;28;20379;-71
2023/12/10 05:51:27;;;;;;;11.47;2.47;;;;;;;14.22;52.56;100273.44;4990711;28;20084;-72
2023/12/10 05:53:52;;;;;;;15.83;2.10;;;;;;;13.73;53.39;100289.91;4993174;28;20034;-72
2023/12/10 05:56:18;;;;;;;4.83;1.37;;;;;;;13.87;52.53;100283.34;4993240;28;20038;-71
2023/12/10 05:58:43;;;;;;;17.80;1.63;;;;;;;14.23;51.81;100280.41;5008618;28;20026;-72
2023/12/10 06:01:09;;;;;;;11.80;1.50;;;;;;;14.02;52.40;100261.81;5010802;28;20033;-72
2023/12/10 06:03:34;;;;;;;13.67;1.83;;;;;;;13.95;52.67;100273.44;5011044;28;20855;-72
2023/12/10 06:06:03;;;;;;;13.03;2.00;;;;;;;13.83;53.11;100286.97;4998829;28;20081;-72
2023/12/10 06:08:28;;;;;;;13.03;1.73;;;;;;;14.39;51.50;100276.34;4992479;28;20045;-71
2023/12/10 06:10:55;;;;;;;6.10;1.20;;;;;;;14.15;52.00;100287.69;5006309;28;20050;-72
2023/12/10 06:13:20;;;;;;;21.20;2.07;;;;;;;14.27;51.86;100303.03;5010045;28;20512;-72
2023/12/10 06:15:46;;;;;;;3.40;1.40;;;;;;;13.94;52.76;100319.00;5011682;28;20045;-72
2023/12/10 06:18:11;;;;;;;16.47;2.97;;;;;;;13.76;52.30;100311.72;5009893;28;20392;-72
2023/12/10 06:20:37;;;;;;;18.10;1.73;;;;;;;14.50;51.61;100322.44;4998555;28;20035;-72
2023/12/10 06:23:02;;;;;;;11.00;2.23;;;;;;;14.36;51.41;100315.88;4990151;28;20030;-72
2023/12/10 06:25:28;;;;;;;7.03;1.70;;;;;;;13.78;52.31;100331.78;4999292;28;20209;-72
2023/12/10 06:28:02;;;;;;;8.27;1.50;;;;;;;14.66;50.22;100328.94;5004374;28;20041;-71
2023/12/10 06:30:28;;;;;;;14.97;1.67;;;;;;;14.86;50.33;100345.78;4998563;28;20033;-71
2023/12/10 06:32:53;;;;;;;11.60;1.43;;;;;;;14.45;51.02;100358.56;5010728;28;20385;-72
2023/12/10 06:35:18;;;;;;;7.33;1.33;;;;;;;14.48;50.81;100354.06;5011116;28;20033;-72
2023/12/10 06:37:44;;;;;;;16.27;1.93;;;;;;;14.94;49.81;100356.88;5008955;28;20034;-72
2023/12/10 06:40:10;;;;;;;4.80;1.20;;;;;;;14.38;50.86;100382.44;5005480;28;20478;-71
2023/12/10 06:42:36;;;;;;;9.77;1.17;;;;;;;14.46;51.10;100397.94;4990131;28;20030;-72
2023/12/10 06:45:03;;;;;;;12.00;1.67;;;;;;;14.53;50.72;100378.41;4992804;28;20028;-72
2023/12/10 06:47:28;;;;;;;11.63;2.27;;;;;;;14.39;50.37;100364.88;5003817;28;20375;-72
2023/12/10 06:49:54;;;;;;;11.93;2.10;;;;;;;14.34;51.13;100372.94;5010914;28;20040;-72
2023/12/10 06:52:19;;;;;;;17.10;2.03;;;;;;;14.51;50.57;100379.41;4989703;28;20104;-72
2023/12/10 06:54:44;;;;;;;12.97;1.93;;;;;;;14.83;50.25;100390.63;4990685;28;20556;-72
2023/12/10 06:57:10;;;;;;;9.27;1.60;;;;;;;14.52;50.71;100386.34;5007112;28;20461;-72
2023/12/10 06:59:36;;;;;;;5.80;1.60;;;;;;;14.40;50.95;100413.94;4997850;28;20441;-72
2023/12/10 07:02:01;;;;;;;4.70;1.33;;;;;;;14.47;50.48;100414.59;5005760;28;20034;-72
2023/12/10 07:04:27;;;;;;;9.30;2.67;;;;;;;14.53;50.79;100414.38;5010608;28;20073;-71
2023/12/10 07:06:52;;;;;;;11.40;1.50;;;;;;;14.62;50.57;100405.31;4995308;28;20076;-72
2023/12/10 07:09:18;;;;;;;11.40;1.80;;;;;;;14.59;50.41;100408.94;4989984;28;20504;-72
2023/12/10 07:11:43;;;;;;;10.97;1.33;;;;;;;14.53;50.65;100414.38;5001445;28;20034;-72
2023/12/10 07:14:08;;;;;;;10.43;1.63;;;;;;;14.85;50.11;100417.72;5006646;28;20116;-72
2023/12/10 07:16:34;;;;;;;12.33;1.70;;;;;;;14.48;50.74;100434.69;5017256;28;20030;-72
2023/12/10 07:19:02;;;;;;;10.30;1.50;;;;;;;15.07;49.79;100426.59;4991184;28;20040;-72
2023/12/10 07:21:28;;;;;;;12.67;1.53;;;;;;;14.81;51.13;100431.88;4991005;28;20041;-72
2023/12/10 07:23:53;;;;;;;8.57;1.73;;;;;;;14.80;50.47;100459.13;4998970;28;20489;-72
2023/12/10 07:26:23;;;;;;;15.50;1.70;;;;;;;15.19;49.58;100456.03;5021872;28;20223;-72
2023/12/10 07:28:49;;;;;;;10.20;1.43;;;;;;;13.99;52.11;100471.28;5002164;28;20434;-72
2023/12/10 07:31:14;;;;;;;14.60;2.83;;;;;;;14.76;50.09;100467.09;5003882;28;20022;-71
2023/12/10 07:33:39;;;;;;;14.67;1.67;;;;;;;14.48;51.25;100469.75;4989994;28;20029;-72
2023/12/10 07:36:05;;;;;;;9.27;1.37;;;;;;;14.27;51.82;100481.78;4991004;28;20026;-72
2023/12/10 07:38:31;;;;;;;6.47;1.20;;;;;;;14.19;52.19;100479.44;5003238;28;20133;-72
2023/12/10 07:40:56;;;;;;;16.03;2.30;;;;;;;13.96;52.16;100509.03;4989506;28;20421;-72
2023/12/10 07:43:22;;;;;;;5.63;1.60;;;;;;;14.19;51.94;100494.31;5023019;28;20072;-72
2023/12/10 07:45:47;;;;;;;14.03;1.70;;;;;;;14.23;51.86;100502.09;4993224;28;20100;-72
2023/12/10 07:48:13;;;;;;;17.20;2.80;;;;;;;14.39;51.59;100506.88;4989494;28;20450;-73
2023/12/10 07:50:38;;;;;;;11.03;2.17;;;;;;;14.18;51.71;100508.38;5006307;28;20145;-73
2023/12/10 07:53:04;;;;;;;9.80;1.43;;;;;;;13.90;52.81;100517.06;4992365;28;20478;-72
2023/12/10 07:55:29;;;;;;;9.27;1.73;;;;;;;14.11;52.09;100517.34;4989157;28;20081;-73
2023/12/10 07:57:55;;;;;;;17.13;1.73;;;;;;;14.74;51.00;100513.66;4993448;28;20109;-72
2023/12/10 08:00:21;;;;;;;15.33;2.20;;;;;;;14.30;50.82;100513.28;4989590;28;20046;-72
2023/12/10 08:02:46;;;;;;;10.37;1.60;;;;;;;14.85;50.08;100525.59;5003650;28;20561;-72
2023/12/10 08:05:12;;;;;;;9.87;1.53;;;;;;;14.27;51.54;100526.50;5007193;28;20048;-73
2023/12/10 08:07:37;;;;;;;14.47;2.07;;;;;;;14.70;50.42;100517.31;5003909;28;20021;-72
2023/12/10 08:10:05;;;;;;;11.90;2.17;;;;;;;14.70;50.55;100538.34;4998050;28;20026;-73
2023/12/10 08:12:31;;;;;;;21.13;2.27;;;;;;;14.69;50.90;100520.84;5001819;28;20544;-73
2023/12/10 08:14:56;;;;;;;13.23;1.87;;;;;;;14.92;49.94;100533.25;5012736;28;20116;-73
2023/12/10 08:17:22;;;;;;;14.23;1.90;;;;;;;14.10;52.40;100536.66;5006295;28;20034;-73
2023/12/10 08:19:47;;;;;;;12.20;1.70;;;;;;;14.71;50.83;100540.09;5002400;28;20026;-72
2023/12/10 08:22:13;;;;;;;19.40;2.63;;;;;;;14.83;50.37;100527.44;4999474;28;20449;-73
2023/12/10 08:24:39;;;;;;;19.90;3.07;;;;;;;15.47;49.50;100531.41;5011776;28;20083;-72
2023/12/10 08:27:05;;;;;;;10.33;2.63;;;;;;;14.99;50.09;100539.19;5015794;28;20038;-72
2023/12/10 08:29:30;;;;;;;10.67;1.43;;;;;;;14.64;51.07;100548.19;5010391;28;20087;-73
2023/12/10 08:31:56;;;;;;;14.20;1.67;;;;;;;14.63;50.91;100563.13;5009779;28;20033;-73
2023/12/10 08:34:21;;;;;;;21.47;2.80;;;;;;;14.35;51.22;100550.78;5011878;28;20034;-73
2023/12/10 08:36:47;;;;;;;11.10;1.93;;;;;;;15.14;49.64;100564.13;5012272;28;20101;-73
2023/12/10 08:39:13;;;;;;;10.40;1.80;;;;;;;14.75;50.31;100552.22;4995698;28;20023;-73
2023/12/10 08:41:38;;;;;;;8.80;1.70;;;;;;;14.76;50.36;100569.72;4993743;28;20029;-73
2023/12/10 08:44:04;;;;;;;18.43;2.93;;;;;;;14.90;50.00;100576.31;5003703;28;20390;-73
2023/12/10 08:46:29;;;;;;;18.53;2.10;;;;;;;14.42;51.48;100568.13;4992052;28;20474;-72
2023/12/10 08:48:55;;;;;;;10.97;2.17;;;;;;;14.91;50.66;100568.38;4995391;28;20386;-72
2023/12/10 08:51:21;;;;;;;10.03;1.87;;;;;;;14.75;50.67;100573.28;4992130;28;20033;-72
2023/12/10 08:53:46;;;;;;;13.63;2.67;;;;;;;15.03;50.51;100577.66;4998923;28;20052;-73
2023/12/10 08:56:12;;;;;;;14.20;1.60;;;;;;;14.92;50.74;100577.13;4997001;28;20037;-72
2023/12/10 08:58:37;;;;;;;9.67;1.33;;;;;;;14.75;50.42;100582.91;5007711;28;20033;-71
2023/12/10 09:01:03;;;;;;;6.73;1.57;;;;;;;14.82;50.66;100578.31;5007675;28;20022;-72
2023/12/10 09:03:28;;;;;;;13.53;1.60;;;;;;;14.68;51.42;100584.88;4997618;28;20390;-73
2023/12/10 09:05:54;;;;;;;10.60;2.17;;;;;;;14.32;52.51;100565.81;5000920;28;20053;-72
2023/12/10 09:08:19;;;;;;;13.80;1.80;;;;;;;14.57;51.33;100598.31;4995655;28;20402;-72
2023/12/10 09:10:45;;;;;;;11.80;1.53;;;;;;;14.30;52.47;100588.63;4994689;28;20060;-73
2023/12/10 09:13:10;;;;;;;20.80;2.07;;;;;;;14.85;51.24;100594.00;4998044;28;20556;-72
2023/12/10 09:15:35;;;;;;;9.73;1.20;;;;;;;14.50;51.73;100603.84;5002965;28;20481;-73
2023/12/10 09:18:02;;;;;;;10.77;1.53;;;;;;;14.45;51.56;100603.09;4991586;28;20529;-72
2023/12/10 09:20:27;;;;;;;11.60;1.93;;;;;;;14.89;51.86;100606.16;4992468;28;20101;-73
2023/12/10 09:22:53;;;;;;;9.00;1.50;;;;;;;14.38;51.67;100605.03;5010687;28;20068;-73
2023/12/10 09:25:18;;;;;;;15.07;2.03;;;;;;;14.39;51.54;100609.41;5010869;28;20038;-72
2023/12/10 09:27:44;;;;;;;14.30;1.20;;;;;;;14.49;51.96;100610.00;4996152;28;20022;-73
2023/12/10 09:30:09;;;;;;;9.10;1.60;;;;;;;14.57;51.64;100610.63;5003213;28;20034;-74
2023/12/10 09:32:35;;;;;;;14.00;1.73;;;;;;;15.31;50.42;100613.59;5009771;28;20132;-73
2023/12/10 09:35:01;;;;;;;11.90;1.37;;;;;;;14.96;50.75;100623.50;5001253;28;20113;-73
2023/12/10 09:37:27;;;;;;;14.90;1.60;;;;;;;14.76;51.00;100617.06;4994348;28;20505;-73
2023/12/10 09:39:52;;;;;;;14.07;2.10;;;;;;;14.60;52.13;100626.31;4999147;28;20390;-73
2023/12/10 09:42:18;;;;;;;12.40;1.57;;;;;;;15.07;51.02;100631.91;5009884;28;20021;-73
2023/12/10 09:44:43;;;;;;;16.73;2.30;;;;;;;15.31;50.49;100637.28;5021225;28;20026;-73
2023/12/10 09:47:10;;;;;;;12.13;2.53;;;;;;;14.52;51.57;100638.81;4992449;28;20041;-73
2023/12/10 09:49:38;;;;;;;10.57;1.90;;;;;;;15.04;51.12;100639.91;4995533;28;20129;-73
2023/12/10 09:52:08;;;;;;;8.23;2.13;;;;;;;14.30;52.44;100655.25;5010670;28;20022;-72
2023/12/10 09:54:37;;;;;;;11.10;1.70;;;;;;;14.84;51.48;100660.72;5010417;28;20045;-73
2023/12/10 09:57:03;;;;;;;9.77;1.77;;;;;;;14.64;51.76;100656.91;5007512;28;20037;-72
2023/12/10 09:59:28;;;;;;;8.77;1.77;;;;;;;14.95;51.16;100655.09;4993709;28;20026;-73
2023/12/10 10:01:54;;;;;;;11.40;1.40;;;;;;;15.68;49.41;100654.50;4996105;28;20038;-73
2023/12/10 10:04:19;;;;;;;12.00;1.73;;;;;;;14.96;50.58;100644.56;4989703;28;20054;-73
2023/12/10 10:06:45;;;;;;;18.63;2.47;;;;;;;14.45;51.73;100650.44;5010114;28;20165;-72
2023/12/10 10:09:11;;;;;;;15.23;1.73;;;;;;;15.16;49.98;100645.69;5008621;28;20022;-72
2023/12/10 10:11:38;;;;;;;12.93;1.70;;;;;;;15.80;48.55;100641.84;5009944;28;20481;-73
2023/12/10 10:14:04;;;;;;;10.57;2.17;;;;;;;15.70;48.25;100647.41;5010264;28;20022;-72
2023/12/10 10:16:31;;;;;;;11.17;1.03;;;;;;;15.84;48.19;100640.81;5009798;28;20083;-72
2023/12/10 10:18:58;;;;;;;10.30;1.30;;;;;;;15.83;47.76;100636.47;5013157;28;20030;-72
2023/12/10 10:21:23;;;;;;;9.40;1.00;;;;;;;15.44;48.76;100641.25;5009166;28;20069;-73
2023/12/10 10:23:49;;;;;;;10.80;1.50;;;;;;;16.10;47.84;100643.41;5009718;28;20144;-72
2023/12/10 10:26:14;;;;;;;15.23;1.77;;;;;;;15.23;48.80;100653.31;5011017;28;20151;-73
2023/12/10 10:28:40;;;;;;;13.70;1.37;;;;;;;16.38;46.63;100647.66;5005772;28;20512;-73
2023/12/10 10:31:05;;;;;;;16.33;1.90;;;;;;;15.47;48.65;100644.66;4995294;28;20437;-73
2023/12/10 10:33:31;;;;;;;10.43;1.47;;;;;;;15.54;48.79;100640.94;5010262;28;20029;-73
2023/12/10 10:35:59;;;;;;;10.20;1.13;;;;;;;16.03;47.86;100639.28;5003617;28;20529;-73
2023/12/10 10:38:27;;;;;;;8.77;1.40;;;;;;;15.57;49.51;100631.13;4989611;28;20391;-72
2023/12/10 10:40:54;;;;;;;9.57;2.13;;;;;;;15.99;48.54;100626.22;5004256;28;20381;-73
2023/12/10 10:43:19;;;;;;;8.43;2.40;;;;;;;15.90;48.87;100617.75;4991151;28;20083;-73
2023/12/10 10:45:45;;;;;;;13.70;2.63;;;;;;;16.62;47.73;100608.94;4991063;28;20122;-73
2023/12/10 10:48:12;;;;;;;22.43;3.37;;;;;;;17.27;46.42;100613.47;5007773;28;20435;-73
2023/12/10 10:50:39;;;;;;;7.30;1.37;;;;;;;16.90;46.55;100599.13;4996582;28;20022;-73
2023/12/10 10:53:06;;;;;;;9.07;2.07;;;;;;;16.64;46.64;100611.50;5020410;28;20026;-73
2023/12/10 10:55:32;;;;;;;12.53;1.83;;;;;;;16.98;46.76;100602.31;5010747;28;20054;-73
2023/12/10 10:57:58;;;;;;;8.17;1.70;;;;;;;18.02;44.94;100596.16;5009868;28;20853;-73
2023/12/10 11:00:23;;;;;;;12.83;1.90;;;;;;;17.36;46.13;100607.75;5008918;28;20029;-73
2023/12/10 11:02:54;;;;;;;9.73;1.83;;;;;;;16.81;47.63;100604.72;5008777;28;20124;-73
2023/12/10 11:05:30;;;;;;;13.03;1.43;;;;;;;16.77;47.73;100615.41;5007600;28;20054;-73
2023/12/10 11:07:55;;;;;;;10.93;1.85;;;;;;;17.36;46.99;100596.34;4998214;28;20026;-73
2023/12/10 11:10:21;;;;;;;12.77;1.97;;;;;;;16.26;48.55;100592.72;5001016;28;20037;-73
2023/12/10 11:12:48;;;;;;;10.67;2.10;;;;;;;16.63;48.60;100583.41;4999700;28;20062;-72
2023/12/10 11:15:17;;;;;;;12.47;1.60;;;;;;;16.83;47.97;100587.03;4990552;28;20026;-73
2023/12/10 11:17:56;;;;;;;12.70;1.67;;;;;;;16.72;47.53;100577.78;4995678;28;20029;-73